Time;durP1;ratioP1;P1;durP2;ratioP2;P2;SDS_P1;SDS_P2;PMS_P1;PMS_P2;Temp;Humidity;BMP_temperature;BMP_pressure;BME280_temperature;BME280_humidity;BME280_pressure;Samples;Min_cycle;Max_cycle;Signal;HPM_P1;HPM_P2
2023/06/06 00:07:08;;;;;;;8.48;4.80;;;14.10;99.90;;;;;;4860290;29;20070;-93
2023/06/06 00:14:59;;;;;;;7.63;4.13;;;14.10;99.90;;;;;;4887648;29;20179;-91
2023/06/06 00:22:41;;;;;;;8.27;4.50;;;14.10;99.90;;;;;;4888026;29;20181;-94
2023/06/06 00:25:42;;;;;;;;;;;;;;;;;;;;;
2023/06/06 00:37:31;;;;;;;5.72;4.13;;;13.90;99.90;;;;;;4837852;29;20079;-92
2023/06/06 00:48:52;;;;;;;6.57;4.45;;;13.60;99.90;;;;;;4859288;29;20033;-94
2023/06/06 00:54:59;;;;;;;4.85;3.83;;;13.50;99.90;;;;;;4891482;29;20135;-95
2023/06/06 00:58:13;;;;;;;5.57;3.90;;;13.50;99.90;;;;;;4919267;29;20044;-93
2023/06/06 01:02:09;;;;;;;4.03;3.28;;;13.60;99.90;;;;;;4907554;29;20160;-93
2023/06/06 01:09:32;;;;;;;;;;;;;;;;;;;;;
2023/06/06 01:12:49;;;;;;;6.32;3.80;;;13.50;3.70;;;;;;4875847;29;20056;-93
2023/06/06 04:29:35;;;;;;;13.88;9.00;;;11.20;99.90;;;;;;4927458;29;20055;-95
2023/06/06 04:32:24;;;;;;;10.05;9.00;;;11.20;99.90;;;;;;4926439;29;20123;-91
2023/06/06 04:35:12;;;;;;;19.40;13.25;;;11.20;99.90;;;;;;4925679;29;20059;-91
2023/06/06 04:45:09;;;;;;;9.45;7.82;;;11.30;99.90;;;;;;5799939;23;20059;-88
2023/06/06 04:47:57;;;;;;;12.50;9.45;;;11.40;99.90;;;;;;4950816;28;20054;-92
2023/06/06 04:50:49;;;;;;;12.73;9.15;;;11.50;99.90;;;;;;4962729;28;20077;-88
2023/06/06 04:53:42;;;;;;;11.18;8.48;;;11.60;99.90;;;;;;4954298;28;20063;-90
2023/06/06 04:56:30;;;;;;;12.55;9.15;;;11.60;99.90;;;;;;4939078;28;20409;-87
2023/06/06 04:59:22;;;;;;;11.43;8.13;;;11.70;99.90;;;;;;4940897;29;20051;-89
2023/06/06 05:02:12;;;;;;;9.25;7.82;;;11.80;99.90;;;;;;4940115;28;20054;-88
2023/06/06 05:05:02;;;;;;;9.60;8.02;;;11.90;99.90;;;;;;4936363;29;20054;-87
2023/06/06 05:07:51;;;;;;;7.13;6.43;;;12.10;99.90;;;;;;4949225;28;20489;-88
2023/06/06 05:10:42;;;;;;;9.20;6.20;;;12.30;1.00;;;;;;4937937;28;20048;-88
2023/06/06 05:13:30;;;;;;;8.30;5.80;;;12.40;99.90;;;;;;4944504;28;20055;-88
2023/06/06 05:16:17;;;;;;;10.40;6.25;;;12.60;99.90;;;;;;4938125;29;20073;-87
2023/06/06 05:19:07;;;;;;;9.23;5.55;;;12.70;99.90;;;;;;4949776;28;20056;-88
2023/06/06 05:21:54;;;;;;;7.75;5.75;;;12.80;99.90;;;;;;4937605;29;20055;-86
2023/06/06 05:24:43;;;;;;;10.95;7.07;;;12.90;99.90;;;;;;4937857;29;20559;-87
2023/06/06 05:27:33;;;;;;;9.02;6.82;;;12.90;1.00;;;;;;4930243;29;20096;-87
2023/06/06 05:30:20;;;;;;;8.63;6.35;;;12.90;99.90;;;;;;4937030;29;20355;-89
2023/06/06 05:33:08;;;;;;;7.90;6.03;;;13.00;1.00;;;;;;4933498;29;20127;-93
2023/06/06 05:35:56;;;;;;;9.35;6.15;;;13.20;99.90;;;;;;4938655;29;20135;-89
2023/06/06 05:38:46;;;;;;;8.93;6.07;;;13.40;5.00;;;;;;4950440;28;20043;-93
2023/06/06 05:41:33;;;;;;;7.13;5.40;;;13.50;99.90;;;;;;4934343;29;20043;-93
2023/06/06 05:44:58;;;;;;;9.52;5.80;;;13.60;55.70;;;;;;4938004;29;20052;-90
2023/06/06 06:50:04;;;;;;;8.38;4.57;;;16.90;1.00;;;;;;4937023;29;20067;-93
2023/06/06 06:57:07;;;;;;;6.00;4.05;;;17.50;99.90;;;;;;4863054;29;20090;-92
2023/06/06 07:00:38;;;;;;;5.38;3.40;;;17.80;99.90;;;;;;4847526;29;20198;-91
2023/06/06 07:03:51;;;;;;;7.05;3.13;;;18.30;99.90;;;;;;4854484;29;20107;-86
2023/06/06 07:07:31;;;;;;;7.60;3.42;;;18.70;99.90;;;;;;4846339;29;20355;-92
2023/06/06 07:10:26;;;;;;;6.35;3.17;;;19.00;99.90;;;;;;4853663;29;20053;-91
2023/06/06 07:13:22;;;;;;;6.00;3.10;;;19.20;99.90;;;;;;4850076;29;20386;-89
2023/06/06 07:23:46;;;;;;;4.43;3.20;;;19.60;91.00;;;;;;4910832;29;20566;-93
2023/06/06 07:27:39;;;;;;;;;;;;;;;;;;;;;
2023/06/06 07:39:08;;;;;;;4.03;2.80;;;21.50;22.30;;;;;;4825371;29;20349;-95
2023/06/06 07:42:23;;;;;;;;;;;;;;;;;;;;;
2023/06/06 07:45:21;;;;;;;6.15;3.28;;;21.80;6.40;;;;;;4818145;29;20058;-91
2023/06/06 07:56:40;;;;;;;3.63;3.03;;;22.70;1.00;;;;;;4857374;29;20041;-95
2023/06/06 08:00:25;;;;;;;4.65;2.90;;;22.60;1.00;;;;;;4873176;29;20790;-95
2023/06/06 08:03:43;;;;;;;5.95;2.50;;;22.80;1.00;;;;;;4941944;29;20048;-91
2023/06/06 08:07:55;;;;;;;;;;;;;;;;;;;;;
2023/06/06 08:23:20;;;;;;;7.68;2.88;;;23.50;1.00;;;;;;4723646;30;20051;-91
2023/06/06 08:38:53;;;;;;;;;;;;;;;;;;;;;
2023/06/06 09:52:42;;;;;;;;;;;;;;;;;;;;;
2023/06/06 09:55:52;;;;;;;4.15;2.63;;;29.00;99.90;;;;;;6206183;23;20029;-87
2023/06/06 09:58:49;;;;;;;3.03;2.42;;;29.30;91.70;;;;;;6190925;23;20474;-88
2023/06/06 10:01:37;;;;;;;;;;;28.70;92.50;;;;;;6192725;23;20081;-89
2023/06/06 10:04:27;;;;;;;3.35;2.97;;;28.40;87.30;;;;;;6215390;23;19947;-86
2023/06/06 10:07:19;;;;;;;4.15;2.50;;;29.10;78.10;;;;;;6197147;23;20192;-86
2023/06/06 10:10:11;;;;;;;6.57;2.60;;;29.80;84.40;;;;;;6196837;23;20029;-88
2023/06/06 10:13:00;;;;;;;4.40;2.85;;;30.40;59.40;;;;;;6172572;23;20029;-88
2023/06/06 10:16:15;;;;;;;2.80;2.50;;;30.50;45.70;;;;;;6191571;23;20749;-88
2023/06/06 10:19:15;;;;;;;6.55;3.10;;;30.90;95.00;;;;;;6194494;23;20066;-89
2023/06/06 10:22:16;;;;;;;5.05;2.45;;;30.70;46.00;;;;;;6185414;23;20033;-89
2023/06/06 10:25:08;;;;;;;;;;;30.80;17.30;;;;;;6200204;23;20025;-86
2023/06/06 10:28:17;;;;;;;4.40;3.15;;;30.50;99.40;;;;;;6201188;23;19920;-87
2023/06/06 10:31:41;;;;;;;4.82;3.08;;;30.40;68.00;;;;;;6182471;23;20025;-88
2023/06/06 10:34:49;;;;;;;3.53;2.95;;;31.00;74.60;;;;;;6187904;23;20025;-90
2023/06/06 10:38:10;;;;;;;4.78;3.00;;;31.60;64.40;;;;;;6185431;23;20021;-90
2023/06/06 10:41:25;;;;;;;3.13;2.50;;;30.90;99.90;;;;;;6180383;23;20032;-87
2023/06/06 10:44:41;;;;;;;4.85;3.33;;;30.70;77.70;;;;;;6112179;23;20034;-88
2023/06/06 10:47:40;;;;;;;6.63;3.25;;;31.40;82.40;;;;;;6189980;23;20344;-87
2023/06/06 10:55:43;;;;;;;5.57;2.75;;;31.60;99.90;;;;;;6002570;23;20593;-93
2023/06/06 11:20:03;;;;;;;6.70;2.75;;;30.90;1.00;;;;;;6244198;22;20024;-89
2023/06/06 11:39:58;;;;;;;4.28;2.97;;;33.40;1.00;;;;;;6071214;23;20024;-93
2023/06/06 11:43:42;;;;;;;5.72;2.80;;;30.30;1.00;;;;;;6220244;23;20401;-91
2023/06/06 11:47:29;;;;;;;5.95;2.90;;;30.50;1.00;;;;;;6153232;23;20039;-91
2023/06/06 11:52:18;;;;;;;;;;;;;;;;;;;;;
2023/06/06 12:01:12;;;;;;;8.25;3.42;;;26.50;1.00;;;;;;6130671;23;20025;-92
2023/06/06 12:29:33;;;;;;;6.38;3.42;;;27.30;1.00;;;;;;5881760;24;20021;-90
2023/06/06 12:32:38;;;;;;;7.70;3.30;;;27.40;1.00;;;;;;5926527;24;20072;-91
2023/06/06 12:49:05;;;;;;;5.95;2.85;;;33.40;1.00;;;;;;6127663;23;20014;-92
2023/06/06 12:52:54;;;;;;;7.13;3.20;;;30.90;1.00;;;;;;6109635;23;20030;-89
2023/06/06 13:08:55;;;;;;;6.43;2.63;;;30.50;1.00;;;;;;6038703;23;20081;-89
2023/06/06 13:16:16;;;;;;;5.32;3.17;;;30.40;1.00;;;;;;5980710;23;20421;-90
2023/06/06 13:19:20;;;;;;;2.83;2.58;;;31.70;1.00;;;;;;6020131;23;20028;-90
2023/06/06 13:22:47;;;;;;;3.88;3.20;;;31.10;1.00;;;;;;6055190;23;20030;-93
2023/06/06 13:39:27;;;;;;;;;;;;;;;;;;;;;
2023/06/06 14:04:05;;;;;;;4.20;2.80;;;32.60;74.10;;;;;;5963183;24;20107;-89
2023/06/06 14:07:43;;;;;;;;;;;;;;;;;;;;;
2023/06/06 14:18:53;;;;;;;4.95;2.60;;;33.80;70.60;;;;;;6009216;23;20051;-91
2023/06/06 14:22:09;;;;;;;3.53;2.40;;;33.60;57.60;;;;;;6107107;23;20024;-91
2023/06/06 14:25:28;;;;;;;7.40;2.55;;;32.90;90.00;;;;;;6232557;23;20035;-89
2023/06/06 14:28:18;;;;;;;3.30;2.92;;;32.30;99.90;;;;;;6248223;23;20039;-91
2023/06/06 14:31:29;;;;;;;5.00;3.00;;;30.70;99.90;;;;;;6250455;23;20031;-93
2023/06/06 14:34:50;;;;;;;4.10;3.08;;;28.40;93.80;;;;;;6244746;23;20028;-92
2023/06/06 14:38:08;;;;;;;;;;;;;;;;;;;;;
2023/06/06 14:42:05;;;;;;;7.82;3.67;;;25.70;99.70;;;;;;6098901;23;20022;-91
2023/06/06 14:49:27;;;;;;;7.93;3.70;;;24.80;78.20;;;;;;6020440;23;20104;-92
2023/06/06 15:01:24;;;;;;;6.43;2.92;;;29.00;73.50;;;;;;5887910;24;20028;-93
2023/06/06 15:04:36;;;;;;;3.95;3.40;;;30.00;99.90;;;;;;5903391;24;20029;-93
2023/06/06 15:07:22;;;;;;;4.28;3.03;;;29.30;60.60;;;;;;5901711;24;20014;-88
2023/06/06 15:10:29;;;;;;;4.55;3.28;;;29.60;83.30;;;;;;5956383;23;20023;-93
2023/06/06 15:13:16;;;;;;;6.93;3.40;;;28.80;50.90;;;;;;6046744;23;20031;-93
2023/06/06 15:16:09;;;;;;;6.10;3.40;;;27.20;52.10;;;;;;6139886;23;20104;-88
2023/06/06 15:19:32;;;;;;;4.93;3.10;;;25.90;37.40;;;;;;6159134;23;20085;-93
2023/06/06 15:26:15;;;;;;;6.97;3.20;;;25.30;24.00;;;;;;6171343;23;20099;-94
2023/06/06 15:34:12;;;;;;;7.65;2.97;;;28.30;99.90;;;;;;6138516;23;20024;-94
2023/06/06 15:37:48;;;;;;;8.25;3.38;;;28.60;99.90;;;;;;6158998;23;20026;-93
2023/06/06 15:40:58;;;;;;;6.13;3.15;;;28.50;99.90;;;;;;6141475;23;20029;-92
2023/06/06 15:44:41;;;;;;;;;;;;;;;;;;;;;
2023/06/06 15:48:03;;;;;;;5.57;3.13;;;28.30;99.90;;;;;;6170255;23;20021;-91
2023/06/06 15:50:50;;;;;;;5.25;3.20;;;27.00;99.90;;;;;;6167438;23;20032;-89
2023/06/06 15:53:39;;;;;;;5.38;3.17;;;26.00;34.80;;;;;;6145958;23;20056;-91
2023/06/06 15:56:27;;;;;;;12.50;3.30;;;25.50;79.00;;;;;;6143883;23;20025;-89
2023/06/06 15:59:21;;;;;;;4.00;2.92;;;24.90;67.10;;;;;;6178906;23;20025;-93
2023/06/06 16:02:13;;;;;;;5.10;2.45;;;24.30;83.00;;;;;;6133387;23;20025;-91
2023/06/06 16:19:14;;;;;;;5.68;2.97;;;23.40;99.90;;;;;;6262645;22;20293;-87
2023/06/06 16:22:26;;;;;;;;;;;23.50;99.90;;;;;;6156963;22;20073;-89
2023/06/06 16:25:14;;;;;;;6.20;2.93;;;23.80;99.90;;;;;;6270522;22;19903;-86
2023/06/06 16:28:08;;;;;;;4.68;2.60;;;23.80;99.90;;;;;;6270828;22;20231;-86
2023/06/06 16:31:05;;;;;;;6.65;3.30;;;23.60;99.90;;;;;;6271579;22;20012;-87
2023/06/06 16:42:21;;;;;;;4.15;2.80;;;23.30;99.90;;;;;;6127140;23;20142;-91
2023/06/06 16:45:33;;;;;;;4.65;3.10;;;23.10;99.90;;;;;;6230147;23;20105;-90
2023/06/06 16:48:25;;;;;;;9.40;3.80;;;23.00;49.80;;;;;;6247099;23;20024;-93
2023/06/06 16:51:16;;;;;;;7.22;2.88;;;23.10;44.20;;;;;;6227294;23;20028;-91
2023/06/06 16:54:23;;;;;;;5.55;3.22;;;23.20;38.70;;;;;;6235839;23;20036;-93
2023/06/06 16:57:10;;;;;;;5.45;2.63;;;23.00;47.00;;;;;;6249282;23;20025;-92
2023/06/06 16:59:59;;;;;;;4.85;3.15;;;22.90;44.20;;;;;;6229129;23;20103;-93
2023/06/06 17:02:48;;;;;;;3.25;2.35;;;22.90;57.50;;;;;;6225981;23;20035;-92
2023/06/06 17:06:00;;;;;;;6.47;3.15;;;22.90;38.10;;;;;;6246124;23;20039;-93
2023/06/06 17:08:53;;;;;;;8.18;2.95;;;23.00;30.20;;;;;;6226834;23;20024;-91
2023/06/06 17:12:06;;;;;;;6.35;3.20;;;22.80;31.20;;;;;;6249693;23;20076;-92
2023/06/06 17:14:59;;;;;;;9.35;3.10;;;22.70;33.40;;;;;;6230089;23;20016;-93
2023/06/06 17:17:49;;;;;;;4.18;3.00;;;22.60;42.10;;;;;;6229547;23;20343;-92
2023/06/06 17:21:55;;;;;;;6.63;2.67;;;22.50;38.70;;;;;;6117640;23;20443;-94
2023/06/06 17:25:00;;;;;;;4.38;3.13;;;22.50;26.00;;;;;;6251974;22;20031;-93
2023/06/06 17:28:14;;;;;;;5.38;2.88;;;22.40;22.70;;;;;;6242659;23;20031;-93
2023/06/06 17:31:12;;;;;;;3.70;2.83;;;22.20;25.40;;;;;;6209446;23;20079;-91
2023/06/06 17:34:14;;;;;;;5.13;2.50;;;22.10;16.90;;;;;;6228345;23;20024;-94
2023/06/06 17:37:04;;;;;;;4.60;2.60;;;22.00;25.60;;;;;;6246956;23;20392;-91
2023/06/06 17:39:51;;;;;;;4.55;2.80;;;21.80;25.60;;;;;;6248224;23;20369;-91
2023/06/06 17:42:41;;;;;;;4.60;2.67;;;21.70;21.60;;;;;;6230170;23;20024;-93
2023/06/06 17:45:43;;;;;;;4.45;2.95;;;21.70;21.10;;;;;;6250050;23;20435;-92
2023/06/06 17:48:36;;;;;;;7.82;3.17;;;21.50;21.80;;;;;;6230207;23;20039;-94
2023/06/06 17:52:11;;;;;;;4.40;2.30;;;21.40;28.10;;;;;;6230318;23;20024;-91
2023/06/06 18:02:14;;;;;;;4.32;2.80;;;21.10;10.70;;;;;;6251334;23;20063;-92
2023/06/06 18:05:45;;;;;;;5.43;3.05;;;20.90;18.10;;;;;;6258970;23;20099;-91
2023/06/06 18:09:16;;;;;;;4.18;2.80;;;20.80;31.50;;;;;;6234775;23;20035;-91
2023/06/06 18:12:14;;;;;;;3.67;2.83;;;20.70;28.20;;;;;;6234620;23;20132;-94
2023/06/06 18:19:53;;;;;;;6.15;3.05;;;20.50;23.80;;;;;;6252587;23;20019;-91
2023/06/06 18:23:18;;;;;;;;;;;;;;;;;;;;;
2023/06/06 18:26:14;;;;;;;5.75;3.08;;;20.20;78.50;;;;;;6217037;23;20024;-89
2023/06/06 18:29:09;;;;;;;4.07;2.47;;;20.10;51.30;;;;;;6227256;23;20028;-91
2023/06/06 18:32:06;;;;;;;;;;;20.00;55.40;;;;;;6224862;23;20366;-90
2023/06/06 18:35:03;;;;;;;4.15;2.75;;;19.90;68.00;;;;;;6249064;23;19970;-89
2023/06/06 18:38:00;;;;;;;7.45;2.80;;;19.90;89.60;;;;;;6225450;23;20035;-90
2023/06/06 18:40:57;;;;;;;7.38;3.20;;;19.80;88.20;;;;;;6225143;23;20621;-90
2023/06/06 18:43:51;;;;;;;5.18;2.38;;;19.60;33.40;;;;;;6225615;23;20080;-92
2023/06/06 18:47:09;;;;;;;4.03;2.70;;;19.60;44.30;;;;;;6245813;23;20031;-91
2023/06/06 18:49:57;;;;;;;7.50;2.53;;;19.40;33.00;;;;;;6248890;23;20039;-91
2023/06/06 18:52:45;;;;;;;4.45;3.10;;;19.40;39.50;;;;;;6225682;23;20020;-92
2023/06/06 18:55:44;;;;;;;5.60;2.45;;;19.30;41.30;;;;;;6244618;23;20080;-92
2023/06/06 18:59:21;;;;;;;7.95;3.15;;;19.20;48.90;;;;;;6225630;23;20103;-91
2023/06/06 19:02:12;;;;;;;7.32;2.50;;;19.10;57.40;;;;;;6225593;23;20020;-90
2023/06/06 19:05:17;;;;;;;4.45;2.50;;;19.00;60.40;;;;;;6224125;23;20020;-91
2023/06/06 19:08:37;;;;;;;4.57;2.30;;;18.90;99.90;;;;;;6141236;23;20025;-91
2023/06/06 19:11:40;;;;;;;5.13;3.00;;;18.70;99.90;;;;;;6154416;23;20112;-90
2023/06/06 19:14:54;;;;;;;4.72;2.80;;;18.60;72.20;;;;;;6155352;23;20040;-91
2023/06/06 19:18:57;;;;;;;7.40;2.90;;;18.50;74.50;;;;;;6153927;23;20160;-90
2023/06/06 19:26:28;;;;;;;6.05;2.90;;;18.30;92.00;;;;;;6247461;23;20000;-90
2023/06/06 19:32:08;;;;;;;5.57;2.77;;;18.00;94.00;;;;;;6231574;22;20308;31
2023/06/06 19:35:01;;;;;;;3.60;2.75;;;17.90;94.80;;;;;;6193495;23;20108;-90
2023/06/06 19:37:50;;;;;;;4.18;2.88;;;17.80;99.90;;;;;;6126271;23;20033;-92
2023/06/06 19:40:39;;;;;;;5.53;3.30;;;17.60;99.90;;;;;;6158017;23;20021;-92
2023/06/06 19:43:27;;;;;;;5.82;3.17;;;17.50;99.90;;;;;;6155160;23;20053;-90
2023/06/06 19:46:19;;;;;;;5.28;2.72;;;17.40;99.90;;;;;;6134673;23;20143;-91
2023/06/06 19:49:08;;;;;;;4.70;3.08;;;17.40;99.90;;;;;;6160252;23;20410;-92
2023/06/06 19:51:56;;;;;;;8.43;2.67;;;17.30;99.90;;;;;;6119340;23;20048;-93
2023/06/06 19:54:47;;;;;;;6.40;2.75;;;17.20;99.90;;;;;;6157990;23;20033;-90
2023/06/06 19:57:47;;;;;;;5.90;3.05;;;17.10;99.90;;;;;;6159590;23;20043;-90
2023/06/06 20:00:55;;;;;;;4.28;2.78;;;17.10;99.90;;;;;;6161401;23;20021;-93
2023/06/06 20:03:46;;;;;;;7.85;2.90;;;17.00;99.90;;;;;;6162570;23;20025;-93
2023/06/06 20:06:39;;;;;;;4.90;2.50;;;16.90;99.90;;;;;;6161444;23;20302;-91
2023/06/06 20:09:32;;;;;;;7.57;2.90;;;16.80;99.90;;;;;;6167813;23;20038;-90
2023/06/06 20:12:42;;;;;;;6.63;2.88;;;16.80;99.90;;;;;;6158602;23;20081;-91
2023/06/06 20:15:39;;;;;;;7.80;3.20;;;16.70;99.90;;;;;;6159354;23;20104;-88
2023/06/06 20:18:27;;;;;;;5.03;2.97;;;16.70;99.90;;;;;;6157072;23;20112;-90
2023/06/06 20:21:15;;;;;;;4.90;2.85;;;16.60;99.90;;;;;;6157413;23;20026;-91
2023/06/06 20:24:04;;;;;;;8.13;2.65;;;16.60;99.90;;;;;;6156698;23;20022;-90
2023/06/06 20:26:52;;;;;;;4.20;3.10;;;16.50;99.90;;;;;;6158915;23;20021;-93
2023/06/06 20:29:41;;;;;;;6.68;2.85;;;16.50;99.90;;;;;;6157207;23;20030;-93
2023/06/06 20:32:30;;;;;;;5.00;3.35;;;16.40;99.90;;;;;;6160041;23;20033;-92
2023/06/06 20:35:18;;;;;;;4.50;2.83;;;16.30;99.90;;;;;;6157983;23;20345;-95
2023/06/06 20:38:12;;;;;;;5.78;3.10;;;16.20;99.90;;;;;;6137038;23;20026;-95
2023/06/06 20:41:00;;;;;;;6.00;3.13;;;16.10;99.90;;;;;;6182793;23;20327;-92
2023/06/06 20:43:51;;;;;;;6.55;3.22;;;16.10;99.90;;;;;;6194800;23;20092;-92
2023/06/06 20:46:43;;;;;;;10.93;3.85;;;16.10;99.90;;;;;;6216548;23;20705;-92
2023/06/06 20:49:33;;;;;;;4.57;3.10;;;16.10;99.90;;;;;;6214635;23;20028;-90
2023/06/06 20:52:32;;;;;;;4.47;2.97;;;16.00;99.90;;;;;;6217073;23;20021;-92
2023/06/06 20:55:22;;;;;;;4.38;3.03;;;16.00;99.90;;;;;;6196494;23;20028;-89
2023/06/06 20:58:16;;;;;;;4.40;3.10;;;15.90;99.90;;;;;;6191607;23;20021;-91
2023/06/06 21:01:05;;;;;;;5.00;3.40;;;15.80;99.90;;;;;;6212448;23;20087;-91
2023/06/06 21:03:53;;;;;;;4.07;3.38;;;15.80;99.90;;;;;;6193892;23;20087;-94
2023/06/06 21:06:41;;;;;;;3.97;2.88;;;15.80;99.90;;;;;;6213022;23;20028;-91
2023/06/06 21:09:28;;;;;;;6.20;3.25;;;15.80;99.90;;;;;;6216172;23;20158;-92
2023/06/06 21:12:17;;;;;;;5.60;3.42;;;15.90;99.90;;;;;;6214197;23;20055;-89
2023/06/06 21:15:24;;;;;;;5.13;3.25;;;15.90;99.90;;;;;;6213853;23;20037;-90
2023/06/06 21:18:14;;;;;;;3.35;3.05;;;15.90;99.90;;;;;;6212465;23;20037;-91
2023/06/06 21:21:04;;;;;;;6.00;3.05;;;15.90;99.90;;;;;;6214678;23;20044;-93
2023/06/06 21:23:52;;;;;;;8.38;3.28;;;15.80;99.90;;;;;;6213698;23;20028;-93
2023/06/06 21:26:39;;;;;;;6.05;3.35;;;15.70;99.90;;;;;;6214945;23;20031;-92
2023/06/06 21:29:27;;;;;;;7.95;3.20;;;15.70;99.90;;;;;;6216369;23;20031;-94
2023/06/06 21:32:15;;;;;;;5.07;2.97;;;15.70;99.90;;;;;;6214279;23;20765;-90
2023/06/06 21:35:05;;;;;;;6.43;3.28;;;15.70;99.90;;;;;;6214311;23;20025;-94
2023/06/06 21:37:53;;;;;;;5.95;3.40;;;15.50;99.90;;;;;;6212483;23;20039;-93
2023/06/06 21:40:40;;;;;;;4.80;3.30;;;15.50;99.90;;;;;;6217498;23;20024;-92
2023/06/06 21:43:28;;;;;;;4.85;3.45;;;15.40;99.90;;;;;;6218031;23;20024;-92
2023/06/06 21:46:16;;;;;;;6.45;3.10;;;15.40;99.90;;;;;;6218258;23;20029;-95
2023/06/06 21:49:04;;;;;;;7.28;3.20;;;15.30;99.90;;;;;;6212528;23;20035;-95
2023/06/06 21:51:52;;;;;;;6.53;3.80;;;15.30;99.90;;;;;;6212891;23;20035;-94
2023/06/06 21:54:48;;;;;;;7.40;4.13;;;15.30;99.90;;;;;;6191333;23;20418;-94
2023/06/06 21:57:36;;;;;;;7.35;4.20;;;15.10;99.90;;;;;;6192578;23;20029;-93
2023/06/06 22:00:26;;;;;;;6.68;4.35;;;15.00;99.90;;;;;;6213958;23;20039;-93
2023/06/06 22:03:14;;;;;;;5.55;4.03;;;14.80;99.90;;;;;;6214534;23;20025;-95
2023/06/06 22:06:02;;;;;;;7.18;3.92;;;14.50;99.90;;;;;;6217379;23;20028;-94
2023/06/06 22:08:51;;;;;;;10.27;4.53;;;14.30;99.90;;;;;;6214975;23;20025;-95
2023/06/06 22:11:39;;;;;;;8.48;3.97;;;14.30;99.90;;;;;;6215464;23;20024;-93
2023/06/06 22:14:27;;;;;;;7.82;3.92;;;14.20;99.90;;;;;;6220460;23;20032;-94
2023/06/06 22:17:14;;;;;;;6.07;4.43;;;14.10;99.90;;;;;;6217733;23;20028;-94
2023/06/06 22:20:09;;;;;;;7.22;3.65;;;14.20;99.90;;;;;;6197445;23;20025;-93
2023/06/06 22:23:02;;;;;;;6.57;3.58;;;14.30;99.90;;;;;;6219030;23;20055;-94
2023/06/06 22:25:50;;;;;;;7.45;3.80;;;14.30;99.90;;;;;;6220118;23;20035;-93
2023/06/06 22:28:57;;;;;;;4.00;3.28;;;14.20;99.90;;;;;;6218246;23;20376;-93
2023/06/06 22:31:45;;;;;;;5.53;3.50;;;14.00;99.90;;;;;;6194673;23;20028;-91
2023/06/06 22:34:35;;;;;;;6.65;3.65;;;13.90;99.90;;;;;;6196006;23;20093;-93
2023/06/06 22:37:24;;;;;;;6.40;3.80;;;13.90;99.90;;;;;;6221371;23;20127;-93
2023/06/06 22:40:16;;;;;;;9.85;4.15;;;13.80;1.00;;;;;;6221723;23;20075;-94
2023/06/06 22:43:03;;;;;;;6.18;3.55;;;13.80;99.90;;;;;;6193663;23;20108;-93
2023/06/06 22:45:51;;;;;;;5.57;3.72;;;13.80;99.90;;;;;;6219342;23;20039;-92
2023/06/06 22:48:38;;;;;;;7.18;3.95;;;13.70;1.00;;;;;;6195704;23;20343;-93
2023/06/06 22:51:33;;;;;;;4.72;3.63;;;13.50;1.00;;;;;;6219310;23;20036;-90
2023/06/06 22:54:22;;;;;;;5.45;3.90;;;13.60;1.00;;;;;;6201304;23;20047;-92
2023/06/06 22:57:11;;;;;;;9.18;4.10;;;13.60;1.00;;;;;;6196672;23;20138;-93
2023/06/06 23:00:01;;;;;;;5.43;4.28;;;13.60;1.00;;;;;;6221342;23;20047;-90
2023/06/06 23:02:49;;;;;;;6.32;4.05;;;13.50;1.00;;;;;;6219746;23;20032;-92
2023/06/06 23:05:40;;;;;;;7.60;4.22;;;13.50;1.00;;;;;;6222943;23;20029;-93
2023/06/06 23:08:28;;;;;;;8.45;4.72;;;13.50;1.00;;;;;;6224070;23;20024;-93
2023/06/06 23:11:16;;;;;;;5.97;4.10;;;13.40;1.00;;;;;;6223214;23;20083;-91
2023/06/06 23:14:06;;;;;;;7.38;4.03;;;13.20;1.00;;;;;;6206023;23;20024;-93
2023/06/06 23:16:54;;;;;;;4.93;4.10;;;13.20;1.00;;;;;;6204364;23;20024;-93
2023/06/06 23:19:41;;;;;;;7.40;4.35;;;13.20;1.00;;;;;;6222785;23;20096;-91
2023/06/06 23:22:31;;;;;;;6.05;4.60;;;13.20;1.00;;;;;;6230867;23;20096;-91
2023/06/06 23:25:31;;;;;;;5.13;4.28;;;13.20;1.00;;;;;;6235030;23;20020;-87
2023/06/06 23:28:19;;;;;;;8.23;4.70;;;13.20;1.00;;;;;;6235211;23;20355;-89
2023/06/06 23:31:06;;;;;;;5.38;4.20;;;13.10;1.00;;;;;;6228263;23;20045;-89
2023/06/06 23:34:06;;;;;;;;;;;;;;;;;;;;;
2023/06/06 23:37:37;;;;;;;;;;;;;;;;;;;;;
2023/06/06 23:44:35;;;;;;;;;;;;;;;;;;;;;
2023/06/06 23:47:31;;;;;;;7.60;5.00;;;12.60;99.90;;;;;;6225346;23;20032;-93
2023/06/06 23:51:00;;;;;;;8.82;4.93;;;12.60;99.90;;;;;;6223315;23;20028;-92
2023/06/06 23:54:11;;;;;;;;;;;;;;;;;;;;;
2023/06/06 23:57:57;;;;;;;6.40;4.80;;;12.50;99.90;;;;;;6231335;23;20076;-93
